Time;durP1;ratioP1;P1;durP2;ratioP2;P2;SDS_P1;SDS_P2;PMS_P1;PMS_P2;Temp;Humidity;BMP_temperature;BMP_pressure;BME280_temperature;BME280_humidity;BME280_pressure;Samples;Min_cycle;Max_cycle;Signal;HPM_P1;HPM_P2
2023/12/23 00:00:03;;;;;;;5.90;3.00;;;;;;;3.13;83.46;97132.72;4879371;29;20033;-80
2023/12/23 00:02:28;;;;;;;5.80;2.65;;;;;;;3.14;83.07;97136.09;4863445;29;20068;-80
2023/12/23 00:04:53;;;;;;;7.93;2.88;;;;;;;3.13;83.17;97145.56;4880223;29;20504;-80
2023/12/23 00:07:19;;;;;;;6.88;2.78;;;;;;;3.15;83.02;97142.91;4879876;29;20036;-80
2023/12/23 00:09:44;;;;;;;9.00;2.70;;;;;;;2.89;83.25;97106.63;4880181;29;20036;-80
2023/12/23 00:12:09;;;;;;;9.82;2.60;;;;;;;2.81;83.39;97082.28;4879872;29;20029;-80
2023/12/23 00:14:35;;;;;;;7.10;2.72;;;;;;;2.91;83.56;97109.13;4880035;29;20029;-80
2023/12/23 00:17:01;;;;;;;6.40;2.63;;;;;;;2.90;83.89;97112.59;4879964;29;20460;-79
2023/12/23 00:19:26;;;;;;;5.57;2.30;;;;;;;3.05;84.14;97132.31;4879782;29;20029;-79
2023/12/23 00:21:51;;;;;;;7.28;2.45;;;;;;;2.99;84.34;97125.78;4879969;29;20036;-79
2023/12/23 00:24:17;;;;;;;5.70;2.35;;;;;;;3.19;84.55;97146.94;4879958;29;20028;-80
2023/12/23 00:26:42;;;;;;;5.80;2.22;;;;;;;3.03;84.79;97133.31;4879925;29;20108;-80
2023/12/23 00:29:07;;;;;;;6.80;2.75;;;;;;;3.05;85.72;97137.44;4879720;29;20033;-80
2023/12/23 00:31:33;;;;;;;5.47;2.05;;;;;;;3.06;86.29;97141.66;4863192;29;20029;-81
2023/12/23 00:33:58;;;;;;;5.75;2.17;;;;;;;2.95;87.07;97132.00;4880148;29;20116;-81
2023/12/23 00:36:23;;;;;;;6.93;2.42;;;;;;;3.12;87.94;97167.06;4895531;29;20509;-79
2023/12/23 00:38:49;;;;;;;8.02;2.20;;;;;;;3.11;88.88;97170.53;4898416;29;20443;-80
2023/12/23 00:41:14;;;;;;;5.43;2.30;;;;;;;2.90;89.57;97146.84;4898340;29;20056;-80
2023/12/23 00:43:39;;;;;;;2.80;1.40;;;;;;;3.02;90.27;97176.19;4898490;29;20063;-81
2023/12/23 00:46:07;;;;;;;3.03;1.58;;;;;;;2.62;90.85;97108.19;4898291;29;20477;-81
2023/12/23 00:48:33;;;;;;;4.03;1.60;;;;;;;2.74;91.22;97139.16;4898301;29;20052;-81
2023/12/23 00:50:59;;;;;;;3.95;1.27;;;;;;;2.69;91.46;97135.19;4898516;29;20517;-81
2023/12/23 00:53:25;;;;;;;2.88;1.52;;;;;;;2.74;92.15;97175.16;4898089;29;20028;-81
2023/12/23 00:55:51;;;;;;;6.03;1.88;;;;;;;2.55;92.24;97150.53;4898334;29;20076;-80
2023/12/23 00:58:17;;;;;;;3.22;1.58;;;;;;;2.68;92.22;97192.63;4912465;29;20082;-81
2023/12/23 01:00:42;;;;;;;5.18;1.45;;;;;;;2.51;92.34;97175.56;4898166;29;20029;-81
2023/12/23 01:03:07;;;;;;;5.95;1.42;;;;;;;2.60;92.73;97212.78;4897830;29;20119;-81
2023/12/23 01:05:33;;;;;;;3.97;1.88;;;;;;;2.41;92.98;97216.34;4898091;29;20032;-81
2023/12/23 01:07:58;;;;;;;4.38;2.22;;;;;;;2.14;93.20;97172.38;4898035;29;20032;-81
2023/12/23 01:10:26;;;;;;;3.75;2.13;;;;;;;2.22;93.16;97216.44;4897764;29;20459;-81
2023/12/23 01:12:52;;;;;;;4.18;2.30;;;;;;;2.04;93.63;97198.63;4897951;29;20483;-81
2023/12/23 01:15:17;;;;;;;3.63;1.83;;;;;;;2.28;94.02;97243.56;4897336;29;20040;-79
2023/12/23 01:17:42;;;;;;;3.97;1.60;;;;;;;2.13;94.03;97234.91;4898275;29;20032;-81
2023/12/23 01:20:08;;;;;;;2.28;1.15;;;;;;;1.99;94.40;97212.50;4897903;29;20032;-81
2023/12/23 01:22:34;;;;;;;4.47;1.30;;;;;;;1.90;94.65;97205.28;4898175;29;20428;-81
2023/12/23 01:24:59;;;;;;;0.88;0.75;;;;;;;1.92;94.62;97211.16;4896713;29;20031;-81
2023/12/23 01:27:24;;;;;;;5.07;1.02;;;;;;;2.15;94.77;97252.78;4897774;29;20036;-81
2023/12/23 01:29:50;;;;;;;2.67;1.20;;;;;;;1.93;94.81;97217.94;4897748;29;20056;-81
2023/12/23 01:32:16;;;;;;;2.42;1.02;;;;;;;2.08;94.91;97252.28;4897493;29;20028;-81
2023/12/23 01:34:42;;;;;;;4.40;1.50;;;;;;;1.95;94.86;97231.53;4897586;29;20055;-81
2023/12/23 01:37:08;;;;;;;1.33;0.80;;;;;;;1.90;95.14;97235.25;4897814;29;20024;-81
2023/12/23 01:39:33;;;;;;;2.95;0.93;;;;;;;2.06;94.80;97264.34;4897629;29;20058;-81
2023/12/23 01:41:58;;;;;;;1.20;1.10;;;;;;;2.07;94.98;97278.06;4897870;29;20024;-81
2023/12/23 01:44:23;;;;;;;1.45;0.80;;;;;;;1.93;94.80;97258.19;4897610;29;20036;-81
2023/12/23 01:46:52;;;;;;;3.17;1.40;;;;;;;1.88;94.30;97258.41;4897589;29;20028;-81
2023/12/23 01:49:19;;;;;;;1.77;0.90;;;;;;;1.86;94.46;97246.59;4897313;29;20036;-79
2023/12/23 01:51:44;;;;;;;3.28;1.10;;;;;;;1.94;94.26;97268.41;4897454;29;20033;-81
2023/12/23 01:54:10;;;;;;;2.30;1.10;;;;;;;1.95;94.46;97290.59;4897649;29;20085;-81
2023/12/23 01:56:35;;;;;;;4.55;1.15;;;;;;;2.06;94.60;97308.00;4897707;29;20107;-80
2023/12/23 01:59:02;;;;;;;2.35;1.02;;;;;;;2.01;94.51;97289.44;4897408;29;20475;-79
2023/12/23 02:01:31;;;;;;;4.18;1.20;;;;;;;1.65;94.40;97241.59;4897295;29;20040;-80
2023/12/23 02:03:56;;;;;;;1.48;0.90;;;;;;;1.94;94.45;97301.78;4897314;29;20574;-80
2023/12/23 02:06:21;;;;;;;4.10;1.90;;;;;;;1.89;94.29;97296.00;4897417;29;20124;-79
2023/12/23 02:08:47;;;;;;;2.15;1.02;;;;;;;1.81;93.58;97287.84;4897306;29;20360;-79
2023/12/23 02:11:21;;;;;;;5.22;1.10;;;;;;;1.92;93.58;97315.56;4897130;29;20474;-80
2023/12/23 02:14:00;;;;;;;2.97;1.10;;;;;;;2.02;93.82;97339.03;4897761;29;20033;-81
2023/12/23 02:16:25;;;;;;;2.80;1.20;;;;;;;1.76;92.92;97294.94;4897530;29;20477;-81
2023/12/23 02:18:51;;;;;;;5.13;1.20;;;;;;;1.54;92.75;97263.56;4897616;29;20028;-81
2023/12/23 02:21:16;;;;;;;2.92;1.15;;;;;;;1.92;92.66;97342.06;4897363;29;20036;-81
2023/12/23 02:23:41;;;;;;;2.35;1.00;;;;;;;1.84;92.51;97326.22;4900598;29;20059;-81
2023/12/23 02:26:09;;;;;;;1.77;0.90;;;;;;;1.95;92.20;97353.94;4901393;29;20386;-81
2023/12/23 02:28:35;;;;;;;1.48;0.85;;;;;;;1.93;92.41;97361.69;4900844;29;20052;-81
2023/12/23 02:31:01;;;;;;;2.05;0.88;;;;;;;1.73;92.27;97325.91;4900830;29;20088;-81
2023/12/23 02:33:27;;;;;;;1.40;0.75;;;;;;;1.73;92.27;97328.47;4899530;29;20032;-80
2023/12/23 02:35:52;;;;;;;1.83;1.00;;;;;;;1.75;92.59;97353.16;4901120;29;20048;-81
2023/12/23 02:38:20;;;;;;;1.75;1.20;;;;;;;1.65;92.57;97333.16;4900946;29;20112;-81
2023/12/23 02:40:45;;;;;;;2.08;0.80;;;;;;;1.86;92.78;97380.88;4900845;29;20045;-81
2023/12/23 02:43:11;;;;;;;2.58;0.85;;;;;;;1.73;93.04;97375.50;4900207;29;20096;-81
2023/12/23 02:45:36;;;;;;;1.42;0.90;;;;;;;1.72;93.12;97360.97;4900244;29;20036;-80
2023/12/23 02:48:02;;;;;;;1.73;0.77;;;;;;;1.94;93.53;97404.44;4900284;29;20428;-81
2023/12/23 02:50:27;;;;;;;2.03;0.90;;;;;;;1.72;93.59;97371.25;4900134;29;20451;-80
2023/12/23 02:52:52;;;;;;;1.60;0.98;;;;;;;1.84;93.88;97410.06;4900568;29;20475;-81
2023/12/23 02:55:18;;;;;;;2.67;0.90;;;;;;;1.70;94.00;97380.78;4899983;29;20475;-81
2023/12/23 02:57:44;;;;;;;2.60;0.90;;;;;;;1.94;94.10;97429.28;4900362;29;20040;-81
2023/12/23 03:00:10;;;;;;;1.52;0.93;;;;;;;1.70;94.11;97388.47;4900373;29;20037;-81
2023/12/23 03:02:36;;;;;;;5.93;1.00;;;;;;;1.67;94.23;97377.50;4900164;29;20111;-81
2023/12/23 03:05:01;;;;;;;2.75;1.42;;;;;;;1.82;94.29;97412.72;4900729;29;20039;-81
2023/12/23 03:07:26;;;;;;;5.30;1.30;;;;;;;1.97;94.10;97436.81;4900073;29;20032;-81
2023/12/23 03:09:52;;;;;;;2.72;0.93;;;;;;;1.91;93.85;97414.84;4900293;29;20028;-81
2023/12/23 03:12:17;;;;;;;3.38;1.15;;;;;;;1.96;93.53;97446.28;4899865;29;20104;-81
2023/12/23 03:14:43;;;;;;;1.20;0.95;;;;;;;1.81;93.43;97438.44;4899996;29;20080;-81
2023/12/23 03:17:08;;;;;;;1.80;0.98;;;;;;;1.85;93.47;97432.28;4899889;29;20035;-81
2023/12/23 03:19:34;;;;;;;3.75;0.90;;;;;;;1.79;93.02;97430.84;4900088;29;20108;-81
2023/12/23 03:21:59;;;;;;;1.63;0.80;;;;;;;1.99;92.98;97446.13;4899659;29;20439;-80
2023/12/23 03:24:24;;;;;;;2.42;0.90;;;;;;;1.93;92.77;97455.84;4899641;29;20466;-81
2023/12/23 03:26:49;;;;;;;3.80;1.33;;;;;;;1.76;92.32;97441.22;4899689;29;20506;-81
2023/12/23 03:29:15;;;;;;;3.42;1.00;;;;;;;1.92;91.79;97472.16;4899393;29;20029;-80
2023/12/23 03:31:40;;;;;;;2.55;1.00;;;;;;;1.70;91.68;97455.19;4899618;29;20115;-81
2023/12/23 03:34:06;;;;;;;3.92;1.23;;;;;;;1.94;92.04;97509.69;4899257;29;20021;-81
2023/12/23 03:36:31;;;;;;;4.72;1.15;;;;;;;1.92;91.75;97513.22;4899109;29;20051;-81
2023/12/23 03:38:56;;;;;;;4.05;1.10;;;;;;;1.93;91.67;97507.19;4900064;29;20073;-81
2023/12/23 03:41:22;;;;;;;2.88;1.13;;;;;;;1.82;91.40;97481.19;4899524;29;20123;-81
2023/12/23 03:43:47;;;;;;;5.50;1.35;;;;;;;2.03;91.25;97521.28;4899641;29;20039;-79
2023/12/23 03:46:13;;;;;;;4.90;1.70;;;;;;;1.85;90.88;97499.00;4899471;29;20478;-81
2023/12/23 03:48:38;;;;;;;3.40;1.95;;;;;;;1.75;90.56;97488.34;4899408;29;20029;-81
2023/12/23 03:51:04;;;;;;;4.53;1.70;;;;;;;1.78;89.74;97495.06;4899513;29;20028;-81
2023/12/23 03:53:29;;;;;;;1.95;1.15;;;;;;;1.87;89.88;97516.00;4899314;29;20363;-81
2023/12/23 03:55:54;;;;;;;3.95;1.35;;;;;;;1.91;89.34;97532.13;4899505;29;20119;-81
2023/12/23 03:58:20;;;;;;;1.88;0.98;;;;;;;2.02;88.84;97559.84;4899529;29;20486;-81
2023/12/23 04:00:47;;;;;;;1.65;1.13;;;;;;;1.74;88.35;97518.31;4899695;29;20052;-81
2023/12/23 04:03:12;;;;;;;6.82;1.63;;;;;;;2.01;88.36;97556.44;4899829;29;20096;-80
2023/12/23 04:05:37;;;;;;;3.30;0.95;;;;;;;1.79;88.60;97548.88;4899970;29;20028;-81
2023/12/23 04:08:03;;;;;;;1.98;1.10;;;;;;;1.75;87.98;97525.09;4899805;29;20025;-81
2023/12/23 04:10:28;;;;;;;4.47;0.90;;;;;;;2.02;87.72;97564.97;4904466;29;20040;-80
2023/12/23 04:12:54;;;;;;;2.10;0.95;;;;;;;1.69;87.67;97542.53;4916611;29;20036;-80
2023/12/23 04:15:19;;;;;;;2.28;0.98;;;;;;;1.98;87.32;97590.81;4902148;29;20037;-80
2023/12/23 04:17:44;;;;;;;2.67;1.02;;;;;;;1.83;87.19;97588.91;4899251;29;20473;-81
2023/12/23 04:20:10;;;;;;;4.88;1.40;;;;;;;1.87;86.65;97593.03;4900267;29;20108;-80
2023/12/23 04:22:36;;;;;;;3.00;1.20;;;;;;;1.91;87.02;97614.25;4899093;29;20100;-81
2023/12/23 04:25:02;;;;;;;4.53;1.58;;;;;;;1.59;86.59;97590.81;4898980;29;20067;-81
2023/12/23 04:27:27;;;;;;;3.20;1.23;;;;;;;1.79;86.30;97615.63;4898409;29;20056;-81
2023/12/23 04:29:52;;;;;;;2.65;1.00;;;;;;;1.70;86.34;97606.59;4898710;29;20132;-81
2023/12/23 04:32:18;;;;;;;4.25;1.30;;;;;;;1.72;86.47;97627.88;4913195;29;20493;-81
2023/12/23 04:34:43;;;;;;;1.77;1.15;;;;;;;1.42;86.53;97614.63;4898202;29;20053;-81
2023/12/23 04:37:08;;;;;;;1.60;0.95;;;;;;;1.64;86.43;97658.16;4898866;29;20394;-81
2023/12/23 04:39:33;;;;;;;0.68;0.68;;;;;;;1.64;86.69;97660.72;4898473;29;20221;-81
2023/12/23 04:41:59;;;;;;;2.53;0.98;;;;;;;1.55;86.63;97638.03;4898443;29;20025;-81
2023/12/23 04:44:24;;;;;;;3.25;1.10;;;;;;;1.36;86.36;97643.13;4897955;29;20039;-81
2023/12/23 04:46:50;;;;;;;2.08;1.23;;;;;;;1.40;86.94;97656.66;4897977;29;20029;-80
2023/12/23 04:49:16;;;;;;;3.05;1.10;;;;;;;1.20;86.67;97635.22;4912792;29;20036;-81
2023/12/23 04:51:44;;;;;;;3.00;0.93;;;;;;;1.18;86.81;97660.09;4898117;29;20084;-81
2023/12/23 04:54:10;;;;;;;2.50;0.75;;;;;;;1.31;86.87;97675.81;4898234;29;20478;-81
2023/12/23 04:56:36;;;;;;;3.83;0.90;;;;;;;1.36;86.85;97693.59;4897884;29;20532;-81
2023/12/23 04:59:01;;;;;;;1.85;1.00;;;;;;;1.07;86.76;97648.59;4912824;29;20103;-80
2023/12/23 05:01:27;;;;;;;2.80;1.40;;;;;;;1.17;86.61;97662.72;4898059;29;20048;-81
2023/12/23 05:03:52;;;;;;;2.97;1.42;;;;;;;1.40;86.52;97705.38;4896883;29;20132;-81
2023/12/23 05:06:18;;;;;;;2.72;1.80;;;;;;;1.32;86.59;97704.88;4898118;29;20355;-81
2023/12/23 05:08:43;;;;;;;4.25;1.75;;;;;;;1.17;86.75;97689.19;4897761;29;20032;-81
2023/12/23 05:11:09;;;;;;;2.95;1.10;;;;;;;1.13;86.83;97691.94;4897933;29;20027;-81
2023/12/23 05:13:34;;;;;;;2.90;1.48;;;;;;;1.10;87.46;97686.94;4897698;29;20040;-81
2023/12/23 05:16:00;;;;;;;1.60;1.08;;;;;;;1.05;87.51;97686.28;4897799;29;20108;-80
2023/12/23 05:18:25;;;;;;;1.83;1.65;;;;;;;1.03;87.85;97688.06;4897449;29;20060;-81
2023/12/23 05:20:50;;;;;;;3.10;1.10;;;;;;;1.25;87.69;97748.69;4897669;29;20152;-81
2023/12/23 05:23:16;;;;;;;2.03;0.95;;;;;;;1.24;88.06;97743.63;4897884;29;20029;-81
2023/12/23 05:25:42;;;;;;;2.72;1.10;;;;;;;1.09;87.95;97728.84;4897567;29;20082;-80
2023/12/23 05:28:07;;;;;;;1.48;1.10;;;;;;;0.93;87.92;97700.44;4897703;29;20032;-81
2023/12/23 05:30:32;;;;;;;2.00;1.35;;;;;;;1.14;88.64;97744.91;4897109;29;20032;-80
2023/12/23 05:32:58;;;;;;;1.23;0.85;;;;;;;1.08;88.92;97742.56;4897680;29;20060;-80
2023/12/23 05:35:23;;;;;;;1.80;0.88;;;;;;;1.11;89.40;97762.97;4897504;29;20056;-81
2023/12/23 05:37:48;;;;;;;1.88;0.90;;;;;;;0.84;89.51;97713.56;4897289;29;20156;-81
2023/12/23 05:40:14;;;;;;;4.63;1.25;;;;;;;1.05;89.64;97737.53;4897205;29;20054;-81
2023/12/23 05:42:39;;;;;;;2.92;1.10;;;;;;;0.68;89.81;97700.53;4897201;29;20375;-81
2023/12/23 05:45:05;;;;;;;1.23;1.10;;;;;;;1.16;89.95;97755.91;4897163;29;20467;-81
2023/12/23 05:47:30;;;;;;;2.97;1.25;;;;;;;1.09;89.49;97757.88;4897129;29;20029;-81
2023/12/23 05:49:57;;;;;;;6.05;1.45;;;;;;;1.15;89.98;97767.91;4897496;29;20056;-81
2023/12/23 05:52:22;;;;;;;2.72;1.00;;;;;;;0.92;89.39;97758.50;4897394;29;20065;-81
2023/12/23 05:54:49;;;;;;;2.13;1.05;;;;;;;1.16;89.69;97796.94;4911682;29;20120;-81
2023/12/23 05:57:14;;;;;;;1.30;0.93;;;;;;;1.21;89.46;97792.47;4897713;29;20161;-81
2023/12/23 05:59:40;;;;;;;2.20;1.25;;;;;;;0.72;89.25;97707.22;4901029;29;20652;-81
2023/12/23 06:02:05;;;;;;;2.95;1.70;;;;;;;0.95;89.52;97765.28;4901616;29;20378;-79
2023/12/23 06:04:30;;;;;;;7.55;1.73;;;;;;;1.10;89.20;97786.94;4900909;29;20028;-81
2023/12/23 06:06:56;;;;;;;3.97;1.73;;;;;;;1.12;89.40;97783.41;4901034;29;20390;-81
2023/12/23 06:09:21;;;;;;;2.28;1.42;;;;;;;0.92;89.23;97765.38;4899680;29;20051;-80
2023/12/23 06:11:46;;;;;;;2.28;1.10;;;;;;;0.66;89.06;97721.06;4900769;29;20024;-81
2023/12/23 06:14:12;;;;;;;1.98;1.02;;;;;;;1.07;88.89;97810.94;4900898;29;20025;-80
2023/12/23 06:16:39;;;;;;;3.63;1.15;;;;;;;1.06;88.78;97816.97;4900653;29;20024;-80
2023/12/23 06:19:05;;;;;;;2.95;1.20;;;;;;;1.09;89.16;97806.59;4900928;29;20040;-80
2023/12/23 06:21:30;;;;;;;4.80;2.20;;;;;;;1.06;89.33;97818.72;4900946;29;20036;-81
2023/12/23 06:23:55;;;;;;;2.83;1.23;;;;;;;0.75;89.29;97766.84;4900977;29;20025;-81
2023/12/23 06:26:21;;;;;;;3.55;1.40;;;;;;;0.92;89.42;97807.22;4900757;29;20028;-81
2023/12/23 06:28:46;;;;;;;5.55;1.20;;;;;;;0.84;89.62;97791.28;4900507;29;20032;-81
2023/12/23 06:31:11;;;;;;;3.22;1.20;;;;;;;0.75;89.01;97771.13;4900658;29;20180;-81
2023/12/23 06:33:37;;;;;;;2.67;1.02;;;;;;;0.90;88.61;97785.13;4900436;29;20500;-81
2023/12/23 06:36:03;;;;;;;4.75;1.17;;;;;;;0.93;88.84;97815.78;4900675;29;20052;-80
2023/12/23 06:38:29;;;;;;;3.97;1.42;;;;;;;1.00;88.81;97807.75;4900313;29;20112;-81
2023/12/23 06:40:55;;;;;;;2.55;1.30;;;;;;;0.80;88.74;97783.78;4899307;29;20435;-81
2023/12/23 06:43:21;;;;;;;4.05;2.10;;;;;;;0.83;88.16;97792.19;4900501;29;20454;-81
2023/12/23 06:45:46;;;;;;;5.57;2.28;;;;;;;0.99;88.43;97813.78;4900094;29;20063;-81
2023/12/23 06:48:11;;;;;;;7.53;2.50;;;;;;;0.99;87.99;97823.22;4900503;29;20056;-81
2023/12/23 06:50:36;;;;;;;4.35;1.92;;;;;;;0.99;87.99;97830.91;4899807;29;20056;-80
2023/12/23 06:53:02;;;;;;;4.25;1.98;;;;;;;0.79;88.43;97811.13;4900511;29;20029;-81
2023/12/23 06:55:27;;;;;;;3.00;1.35;;;;;;;0.72;88.16;97789.22;4900496;29;20390;-80
2023/12/23 06:57:54;;;;;;;2.20;1.50;;;;;;;0.58;88.70;97765.81;4899869;29;20032;-81
2023/12/23 07:00:20;;;;;;;5.35;1.52;;;;;;;0.98;88.59;97819.00;4900227;29;20070;-80
2023/12/23 07:02:45;;;;;;;5.63;1.45;;;;;;;0.88;88.68;97803.09;4899849;29;20138;-81
2023/12/23 07:05:11;;;;;;;3.75;1.67;;;;;;;0.92;88.77;97816.63;4900119;29;20032;-82
2023/12/23 07:07:36;;;;;;;4.35;1.48;;;;;;;0.79;89.00;97790.63;4899683;29;20073;-82
2023/12/23 07:10:01;;;;;;;2.90;1.80;;;;;;;0.85;89.39;97798.09;4899491;29;20025;-82
2023/12/23 07:12:27;;;;;;;2.22;1.73;;;;;;;0.80;89.66;97773.53;4899902;29;20115;-82
2023/12/23 07:14:52;;;;;;;5.22;1.90;;;;;;;1.02;89.70;97814.59;4899637;29;20446;-82
2023/12/23 07:17:18;;;;;;;3.17;1.42;;;;;;;0.84;90.33;97772.53;4899854;29;20085;-80
2023/12/23 07:19:43;;;;;;;3.00;1.70;;;;;;;1.17;90.27;97821.69;4899483;29;20055;-82
2023/12/23 07:22:08;;;;;;;10.45;4.90;;;;;;;0.96;90.01;97778.00;4899695;29;20035;-82
2023/12/23 07:24:33;;;;;;;6.65;3.95;;;;;;;0.87;90.60;97754.47;4899504;29;20029;-82
2023/12/23 07:27:00;;;;;;;9.15;6.25;;;;;;;1.25;90.39;97797.41;4899909;29;20033;-82
2023/12/23 07:29:25;;;;;;;5.95;3.15;;;;;;;0.88;90.45;97739.03;4899525;29;20032;-82
2023/12/23 07:31:50;;;;;;;7.57;2.40;;;;;;;1.34;90.70;97803.91;4899413;29;20029;-81
2023/12/23 07:34:16;;;;;;;5.68;3.42;;;;;;;1.18;90.78;97769.50;4899502;29;20036;-81
2023/12/23 07:36:41;;;;;;;7.00;3.05;;;;;;;1.34;91.06;97793.66;4899548;29;20123;-81
2023/12/23 07:39:06;;;;;;;7.60;2.55;;;;;;;1.40;91.08;97805.44;4899442;29;20431;-81
2023/12/23 07:41:32;;;;;;;7.65;2.45;;;;;;;1.30;91.00;97781.00;4899640;29;20056;-82
2023/12/23 07:43:57;;;;;;;7.00;2.53;;;;;;;1.30;91.20;97773.31;4899359;29;20107;-82
2023/12/23 07:46:22;;;;;;;9.60;2.90;;;;;;;1.37;91.58;97788.41;4899589;29;20084;-82
2023/12/23 07:48:48;;;;;;;8.23;4.40;;;;;;;1.23;91.24;97759.91;4899043;29;20029;-81
2023/12/23 07:51:14;;;;;;;9.80;3.90;;;;;;;1.48;91.63;97793.97;4899582;29;20103;-82
2023/12/23 07:53:40;;;;;;;16.95;9.23;;;;;;;1.34;91.34;97762.03;4898872;29;20037;-81
2023/12/23 07:56:06;;;;;;;11.40;6.40;;;;;;;1.44;91.63;97771.91;4899097;29;20443;-81
2023/12/23 07:58:31;;;;;;;17.92;10.30;;;;;;;1.55;91.68;97786.00;4898981;29;20038;-80
2023/12/23 08:00:57;;;;;;;11.95;4.28;;;;;;;1.32;91.22;97735.63;4898838;29;20453;-81
2023/12/23 08:03:22;;;;;;;12.10;6.18;;;;;;;1.49;91.63;97746.88;4899010;29;20556;-81
2023/12/23 08:05:47;;;;;;;15.35;9.55;;;;;;;1.33;91.37;97714.22;4898986;29;20021;-81
2023/12/23 08:08:13;;;;;;;13.00;9.02;;;;;;;1.51;91.26;97733.97;4898772;29;20028;-81
2023/12/23 08:10:39;;;;;;;9.82;5.25;;;;;;;1.81;91.05;97772.94;4898601;29;20107;-81
2023/12/23 08:13:05;;;;;;;15.60;6.20;;;;;;;1.83;90.85;97768.59;4898787;29;20183;-81
2023/12/23 08:15:30;;;;;;;12.43;8.65;;;;;;;1.83;90.85;97771.16;4899058;29;20043;-81
2023/12/23 08:17:55;;;;;;;17.10;10.95;;;;;;;1.66;90.65;97725.66;4898552;29;20036;-80
2023/12/23 08:20:21;;;;;;;18.13;8.68;;;;;;;1.55;90.46;97709.88;4897870;29;20070;-82
2023/12/23 08:22:46;;;;;;;27.15;16.52;;;;;;;1.78;90.66;97739.72;4898419;29;20052;-81
2023/12/23 08:25:12;;;;;;;17.08;8.32;;;;;;;2.00;90.41;97775.59;4881874;29;20084;-82
2023/12/23 08:27:38;;;;;;;18.45;10.35;;;;;;;1.69;89.77;97732.41;4898238;29;20115;-82
2023/12/23 08:30:05;;;;;;;16.08;7.07;;;;;;;1.71;89.83;97721.16;4898232;29;20483;-81
2023/12/23 08:32:30;;;;;;;11.55;5.32;;;;;;;1.99;90.03;97756.78;4898597;29;20037;-81
2023/12/23 08:34:55;;;;;;;16.27;7.85;;;;;;;1.99;90.13;97753.41;4896782;29;20048;-81
2023/12/23 08:37:21;;;;;;;14.25;7.63;;;;;;;1.98;89.95;97741.44;4898564;29;20040;-82
2023/12/23 08:39:47;;;;;;;34.22;16.15;;;;;;;2.06;89.72;97741.13;4898099;29;20028;-81
2023/12/23 08:42:13;;;;;;;14.95;7.40;;;;;;;1.96;89.98;97723.53;4898575;29;20036;-81
2023/12/23 08:44:38;;;;;;;21.90;6.93;;;;;;;2.22;89.44;97762.66;4898000;29;20574;-81
2023/12/23 08:47:04;;;;;;;23.77;11.40;;;;;;;2.12;89.53;97723.72;4898053;29;20073;-81
2023/12/23 08:49:29;;;;;;;15.43;7.80;;;;;;;2.17;89.56;97746.63;4898170;29;20068;-82
2023/12/23 08:51:54;;;;;;;23.90;11.63;;;;;;;1.90;89.92;97710.16;4897979;29;20115;-82
2023/12/23 08:54:20;;;;;;;22.90;11.57;;;;;;;2.00;90.15;97726.81;4898175;29;20467;-81
2023/12/23 08:56:45;;;;;;;27.48;14.45;;;;;;;1.98;89.85;97705.50;4897796;29;20034;-81
2023/12/23 08:59:10;;;;;;;35.78;17.85;;;;;;;2.11;89.81;97736.63;4897895;29;20097;-81
2023/12/23 09:01:36;;;;;;;13.00;6.03;;;;;;;2.16;90.23;97768.09;4897921;29;20463;-82
2023/12/23 09:04:02;;;;;;;14.88;5.60;;;;;;;2.22;90.63;97770.38;4897591;29;20356;-81
2023/12/23 09:06:27;;;;;;;17.60;6.72;;;;;;;1.92;90.46;97724.56;4898110;29;20451;-81
2023/12/23 09:08:54;;;;;;;13.18;5.20;;;;;;;2.19;90.81;97752.53;4897241;29;20100;-82
2023/12/23 09:11:19;;;;;;;26.90;10.70;;;;;;;2.07;91.15;97720.53;4897731;29;20107;-81
2023/12/23 09:13:44;;;;;;;28.58;12.25;;;;;;;2.32;91.03;97753.69;4897437;29;20470;-81
2023/12/23 09:16:10;;;;;;;14.05;4.13;;;;;;;2.08;91.15;97696.50;4897407;29;20044;-82
2023/12/23 09:18:35;;;;;;;31.15;12.18;;;;;;;2.36;90.92;97757.78;4897625;29;20036;-82
2023/12/23 09:21:00;;;;;;;19.17;5.75;;;;;;;2.23;91.01;97724.09;4896144;29;20024;-82
2023/12/23 09:23:26;;;;;;;19.90;9.02;;;;;;;2.33;91.24;97741.66;4897594;29;20024;-81
2023/12/23 09:25:51;;;;;;;20.67;7.78;;;;;;;2.36;91.19;97749.22;4897631;29;20494;-82
2023/12/23 09:28:17;;;;;;;12.25;5.20;;;;;;;2.07;91.48;97694.84;4897454;29;20020;-81
2023/12/23 09:30:43;;;;;;;7.50;3.05;;;;;;;2.43;91.19;97754.03;4897463;29;20028;-81
2023/12/23 09:33:08;;;;;;;19.95;8.25;;;;;;;2.46;91.53;97753.06;4880182;29;20040;-80
2023/12/23 09:35:34;;;;;;;15.20;5.47;;;;;;;2.41;91.30;97719.88;4897176;29;20048;-81
2023/12/23 09:37:59;;;;;;;14.88;5.60;;;;;;;2.40;91.57;97730.19;4897322;29;20040;-81
2023/12/23 09:40:25;;;;;;;11.05;3.42;;;;;;;2.31;92.03;97712.63;4897452;29;20064;-81
2023/12/23 09:42:50;;;;;;;9.30;4.70;;;;;;;2.42;91.99;97716.41;4897311;29;20394;-81
2023/12/23 09:45:18;;;;;;;17.00;7.22;;;;;;;2.51;92.16;97720.28;4897649;29;20088;-81
2023/12/23 09:47:44;;;;;;;15.35;7.53;;;;;;;2.55;92.37;97721.00;4897072;29;20080;-81
2023/12/23 09:50:10;;;;;;;13.95;4.50;;;;;;;2.53;92.39;97712.50;4897188;29;20024;-81
2023/12/23 09:52:35;;;;;;;9.43;3.97;;;;;;;2.61;92.82;97723.25;4880337;29;20035;-81
2023/12/23 09:55:03;;;;;;;10.20;3.38;;;;;;;2.39;92.71;97679.72;4905458;29;20107;-81
2023/12/23 09:57:30;;;;;;;13.18;4.05;;;;;;;2.58;93.01;97702.88;4899116;29;20028;-81
2023/12/23 09:59:57;;;;;;;9.70;4.63;;;;;;;2.65;93.02;97724.78;4916253;29;20071;-81
2023/12/23 10:02:23;;;;;;;15.90;3.95;;;;;;;2.67;93.27;97712.72;4915984;29;20390;-81
2023/12/23 10:04:48;;;;;;;13.40;4.40;;;;;;;2.66;93.58;97701.63;4915996;29;20024;-81
2023/12/23 10:07:15;;;;;;;8.48;3.47;;;;;;;2.47;93.90;97669.94;4916053;29;20040;-82
2023/12/23 10:09:40;;;;;;;12.90;4.13;;;;;;;2.74;93.94;97704.66;4916018;29;20028;-81
2023/12/23 10:12:06;;;;;;;15.38;4.57;;;;;;;2.37;93.99;97654.13;4916036;29;20043;-81
2023/12/23 10:14:31;;;;;;;16.25;5.68;;;;;;;2.64;94.12;97697.44;4915658;29;20020;-81
2023/12/23 10:16:57;;;;;;;15.00;7.82;;;;;;;2.73;95.08;97700.41;4915515;29;20123;-82
2023/12/23 10:19:23;;;;;;;13.30;4.95;;;;;;;2.59;95.37;97668.53;4916218;29;20156;-81
2023/12/23 10:21:48;;;;;;;10.57;4.97;;;;;;;2.66;95.70;97691.34;4915757;29;20629;-81
2023/12/23 10:24:14;;;;;;;13.95;6.00;;;;;;;2.78;96.43;97709.63;4916546;29;20569;-81
2023/12/23 10:26:41;;;;;;;25.50;10.40;;;;;;;2.65;96.97;97689.63;4899480;29;20028;-82
2023/12/23 10:29:09;;;;;;;14.52;5.00;;;;;;;2.75;97.40;97711.47;4916268;29;20054;-82
2023/12/23 10:31:36;;;;;;;13.43;4.22;;;;;;;2.74;97.88;97706.41;4916971;29;20040;-84
2023/12/23 10:34:08;;;;;;;10.32;4.55;;;;;;;2.61;98.26;97677.00;4917855;29;20036;-81
2023/12/23 10:36:33;;;;;;;11.60;4.50;;;;;;;2.67;98.72;97681.88;4915849;29;20116;-81
2023/12/23 10:39:02;;;;;;;16.08;6.43;;;;;;;2.33;98.76;97626.06;4898852;29;20032;-80
2023/12/23 10:41:50;;;;;;;7.63;3.72;;;;;;;2.63;98.86;97668.34;4916520;29;20071;-81
2023/12/23 10:44:17;;;;;;;12.80;5.32;;;;;;;2.83;99.33;97705.97;4917599;29;20039;-81
2023/12/23 10:46:43;;;;;;;10.18;4.07;;;;;;;2.67;99.11;97672.44;4919175;29;20036;-82
2023/12/23 10:49:10;;;;;;;11.93;4.40;;;;;;;2.62;99.76;97664.09;4918758;29;20024;-82
2023/12/23 10:51:37;;;;;;;8.23;4.25;;;;;;;2.92;100.00;97707.28;4919396;29;20422;-81
2023/12/23 10:54:03;;;;;;;9.27;4.70;;;;;;;2.83;100.00;97700.00;4901806;29;20385;-81
2023/12/23 10:56:29;;;;;;;10.70;5.20;;;;;;;2.69;100.00;97678.31;4919027;29;20040;-81
2023/12/23 10:58:55;;;;;;;14.70;5.82;;;;;;;2.81;100.00;97701.78;4918630;29;20036;-80
2023/12/23 11:01:23;;;;;;;10.90;4.45;;;;;;;2.63;100.00;97667.50;4918642;29;20490;-80
2023/12/23 11:03:54;;;;;;;6.95;4.05;;;;;;;2.67;100.00;97661.31;4918639;29;20035;-80
2023/12/23 11:06:21;;;;;;;11.13;4.90;;;;;;;2.83;100.00;97705.16;4918854;29;20088;-81
2023/12/23 11:08:48;;;;;;;10.70;4.70;;;;;;;2.63;100.00;97688.91;4918543;29;20028;-81
2023/12/23 11:11:14;;;;;;;10.63;4.47;;;;;;;2.70;100.00;97702.31;4918744;29;20024;-81
2023/12/23 11:13:39;;;;;;;15.50;6.95;;;;;;;2.72;100.00;97692.78;4918384;29;20501;-81
2023/12/23 11:16:10;;;;;;;9.38;4.97;;;;;;;2.63;100.00;97691.47;4918482;29;20028;-81
2023/12/23 11:18:36;;;;;;;13.60;6.85;;;;;;;2.69;100.00;97708.34;4901912;29;20375;-81
2023/12/23 11:21:02;;;;;;;11.98;5.72;;;;;;;2.48;100.00;97667.28;4918504;29;20155;-81
2023/12/23 11:23:31;;;;;;;11.75;5.75;;;;;;;2.74;100.00;97706.41;4918665;29;20111;-81
2023/12/23 11:25:57;;;;;;;23.58;12.60;;;;;;;2.57;100.00;97678.06;4918347;29;20064;-80
2023/12/23 11:28:26;;;;;;;12.27;7.57;;;;;;;2.29;100.00;97640.78;4918401;29;20127;-80
2023/12/23 11:30:54;;;;;;;9.45;7.85;;;;;;;2.45;100.00;97669.19;4918224;29;20032;-80